Time;durP1;ratioP1;P1;durP2;ratioP2;P2;SDS_P1;SDS_P2;PMS_P1;PMS_P2;Temp;Humidity;BMP_temperature;BMP_pressure;BME280_temperature;BME280_humidity;BME280_pressure;Samples;Min_cycle;Max_cycle;Signal;HPM_P1;HPM_P2
2022/09/13 00:00:07;;;;;;;1.80;1.60;;;16.30;99.90;;;;;;5113718;28;20237;-41
2022/09/13 00:02:32;;;;;;;1.70;1.60;;;16.30;99.90;;;;;;5113529;28;20174;-40
2022/09/13 00:04:58;;;;;;;5.70;2.20;;;16.20;99.90;;;;;;5113384;28;20247;-41
2022/09/13 00:07:23;;;;;;;1.60;1.50;;;16.20;99.90;;;;;;5113574;28;20640;-43
2022/09/13 00:09:49;;;;;;;1.67;1.57;;;16.20;99.90;;;;;;5113494;28;20181;-42
2022/09/13 00:12:15;;;;;;;2.00;1.80;;;16.20;99.90;;;;;;5113619;28;20196;-43
2022/09/13 00:14:40;;;;;;;2.17;1.97;;;16.20;99.90;;;;;;5113387;28;20197;-41
2022/09/13 00:17:06;;;;;;;1.67;1.57;;;16.20;99.90;;;;;;5113312;28;20193;-41
2022/09/13 00:19:32;;;;;;;1.80;1.43;;;16.20;99.90;;;;;;5113249;28;20558;-43
2022/09/13 00:21:58;;;;;;;2.00;1.80;;;16.20;99.90;;;;;;5113974;28;20521;-43
2022/09/13 00:24:23;;;;;;;1.97;1.80;;;16.30;99.90;;;;;;5113519;28;20190;-40
2022/09/13 00:26:49;;;;;;;2.20;2.00;;;16.30;99.90;;;;;;5113255;28;20625;-43
2022/09/13 00:29:15;;;;;;;2.00;1.90;;;16.30;99.90;;;;;;5113260;28;20270;-41
2022/09/13 00:31:40;;;;;;;2.67;2.20;;;16.30;99.90;;;;;;5113468;28;20213;-42
2022/09/13 00:34:06;;;;;;;2.63;2.00;;;16.40;99.90;;;;;;5112003;28;20632;-44
2022/09/13 00:36:31;;;;;;;2.00;1.80;;;16.30;99.90;;;;;;5113359;28;20198;-40
2022/09/13 00:38:59;;;;;;;2.33;1.70;;;16.40;99.90;;;;;;5112314;28;20623;-41
2022/09/13 00:41:24;;;;;;;2.30;1.97;;;16.30;99.90;;;;;;5111809;28;20244;-42
2022/09/13 00:43:53;;;;;;;3.30;2.07;;;16.40;99.90;;;;;;5113315;28;20593;-43
2022/09/13 00:46:26;;;;;;;2.67;1.90;;;16.30;99.90;;;;;;5113314;28;20229;-41
2022/09/13 00:48:59;;;;;;;4.80;2.00;;;16.30;99.90;;;;;;5115822;28;20178;-41
2022/09/13 00:51:27;;;;;;;3.67;1.80;;;16.30;99.90;;;;;;5115846;28;20642;-41
2022/09/13 00:53:54;;;;;;;1.93;1.60;;;16.30;99.90;;;;;;5117956;28;20190;-41
2022/09/13 00:56:28;;;;;;;3.37;1.60;;;16.30;99.90;;;;;;5117445;28;20202;-42
2022/09/13 00:59:08;;;;;;;2.30;2.10;;;16.20;99.90;;;;;;5117299;28;20269;-41
2022/09/13 01:01:43;;;;;;;1.93;1.73;;;16.20;99.90;;;;;;5116115;28;20162;-40
2022/09/13 01:04:10;;;;;;;3.73;2.20;;;16.20;99.90;;;;;;5117812;27;20219;-43
2022/09/13 01:06:39;;;;;;;1.43;1.33;;;16.10;99.90;;;;;;5117152;28;20556;-43
2022/09/13 01:09:05;;;;;;;2.10;1.80;;;16.20;99.90;;;;;;5117054;28;20536;-43
2022/09/13 01:11:49;;;;;;;3.73;1.80;;;16.20;99.90;;;;;;5115561;28;20181;-42
2022/09/13 01:14:17;;;;;;;3.97;1.90;;;16.10;99.90;;;;;;5116775;27;20151;-40
2022/09/13 01:16:44;;;;;;;2.30;1.80;;;16.10;99.90;;;;;;5116949;28;20601;-41
2022/09/13 01:19:09;;;;;;;2.83;2.03;;;16.10;99.90;;;;;;5115308;28;20227;-40
2022/09/13 01:22:02;;;;;;;2.77;1.97;;;16.10;99.90;;;;;;5116663;28;20174;-42
2022/09/13 01:25:02;;;;;;;2.17;1.90;;;16.10;99.90;;;;;;5116630;28;20194;-43
2022/09/13 01:28:04;;;;;;;2.47;2.00;;;16.10;99.90;;;;;;5116466;28;20179;-41
2022/09/13 01:30:36;;;;;;;2.93;1.93;;;16.10;99.90;;;;;;5116448;28;20177;-41
2022/09/13 01:33:26;;;;;;;2.63;2.07;;;16.10;99.90;;;;;;5115222;28;20247;-43
2022/09/13 01:36:22;;;;;;;2.40;2.20;;;16.10;99.90;;;;;;5116546;28;20194;-41
2022/09/13 01:38:58;;;;;;;3.40;2.60;;;16.00;99.90;;;;;;5115157;28;20175;-42
2022/09/13 01:41:57;;;;;;;2.10;1.90;;;16.00;99.90;;;;;;5115216;28;20552;-42
2022/09/13 01:44:49;;;;;;;3.37;2.03;;;16.00;99.90;;;;;;5116589;28;20159;-41
2022/09/13 01:47:37;;;;;;;2.30;2.10;;;16.00;99.90;;;;;;5114995;28;20236;-42
2022/09/13 01:50:21;;;;;;;4.57;2.30;;;15.90;99.90;;;;;;5116306;27;20189;-41
2022/09/13 01:52:59;;;;;;;2.90;2.07;;;16.00;99.90;;;;;;5114740;28;20227;-42
2022/09/13 01:55:40;;;;;;;3.57;2.23;;;15.90;99.90;;;;;;5116041;28;20202;-41
2022/09/13 01:58:34;;;;;;;2.23;1.97;;;15.90;99.90;;;;;;5115831;28;20166;-41
2022/09/13 02:01:09;;;;;;;2.00;1.80;;;16.00;99.90;;;;;;5116005;28;20190;-43
2022/09/13 02:03:43;;;;;;;2.23;2.03;;;15.90;99.90;;;;;;5116022;28;20227;-43
2022/09/13 02:06:17;;;;;;;4.80;2.00;;;16.00;99.90;;;;;;5115625;28;20194;-41
2022/09/13 02:08:53;;;;;;;2.53;1.93;;;16.00;99.90;;;;;;5115638;28;20165;-42
2022/09/13 02:11:21;;;;;;;4.73;2.23;;;16.00;99.90;;;;;;5115816;28;20184;-44
2022/09/13 02:13:52;;;;;;;2.97;2.03;;;16.00;99.90;;;;;;5118016;28;20279;-44
2022/09/13 02:16:34;;;;;;;3.23;1.90;;;16.00;99.90;;;;;;5120865;28;20280;-41
2022/09/13 02:19:09;;;;;;;2.30;2.10;;;16.00;99.90;;;;;;5120685;27;20583;-42
2022/09/13 02:21:38;;;;;;;3.57;1.73;;;16.10;99.90;;;;;;5120703;28;20705;-43
2022/09/13 02:24:14;;;;;;;2.83;2.10;;;16.10;99.90;;;;;;5120554;28;20174;-43
2022/09/13 02:26:45;;;;;;;2.30;2.10;;;16.10;99.90;;;;;;5118959;28;20213;-43
2022/09/13 02:29:16;;;;;;;2.30;2.10;;;16.20;99.90;;;;;;5119502;28;20178;-41
2022/09/13 02:31:47;;;;;;;5.67;2.20;;;16.20;99.90;;;;;;5121064;28;20190;-41
2022/09/13 02:34:22;;;;;;;2.43;2.20;;;16.20;99.90;;;;;;5114152;28;20178;-37
2022/09/13 02:36:49;;;;;;;3.07;2.27;;;16.20;99.90;;;;;;5115184;28;20196;-38
2022/09/13 02:39:17;;;;;;;3.23;2.13;;;16.30;99.90;;;;;;5115118;28;20744;-38
2022/09/13 02:41:51;;;;;;;3.77;2.30;;;16.30;99.90;;;;;;5113774;28;20227;-40
2022/09/13 02:44:29;;;;;;;3.93;2.13;;;16.30;99.90;;;;;;5115153;28;20248;-37
2022/09/13 02:47:07;;;;;;;3.03;2.20;;;16.40;99.90;;;;;;5115149;27;20155;-39
2022/09/13 02:49:54;;;;;;;3.23;2.10;;;16.40;99.90;;;;;;5114907;28;20532;-39
2022/09/13 02:52:30;;;;;;;1.97;1.77;;;16.40;99.90;;;;;;5115165;28;20523;-37
2022/09/13 02:55:13;;;;;;;4.83;2.50;;;16.40;99.90;;;;;;5113353;28;20729;-39
2022/09/13 02:58:09;;;;;;;6.43;2.33;;;16.50;99.90;;;;;;5115183;28;20534;-38
2022/09/13 03:00:35;;;;;;;2.73;1.97;;;16.40;99.90;;;;;;5112766;28;20628;-37
2022/09/13 03:03:05;;;;;;;6.33;3.13;;;16.40;99.90;;;;;;5114937;28;20554;-40
2022/09/13 03:05:31;;;;;;;3.93;2.50;;;16.50;99.90;;;;;;5114551;28;20289;-39
2022/09/13 03:07:58;;;;;;;2.60;2.37;;;16.50;99.90;;;;;;5114788;28;20265;-41
2022/09/13 03:10:28;;;;;;;3.50;2.50;;;16.50;99.90;;;;;;5113637;28;20725;-39
2022/09/13 03:13:00;;;;;;;3.50;2.17;;;16.50;99.90;;;;;;5114446;28;20162;-39
2022/09/13 03:15:44;;;;;;;5.20;2.40;;;16.50;99.90;;;;;;5114345;28;20194;-37
2022/09/13 03:18:46;;;;;;;2.53;2.20;;;16.50;99.90;;;;;;5114763;28;20162;-39
2022/09/13 03:21:50;;;;;;;2.40;1.90;;;16.50;99.90;;;;;;5114297;28;20196;-39
2022/09/13 03:24:27;;;;;;;2.60;2.20;;;16.50;99.90;;;;;;5112933;28;20186;-39
2022/09/13 03:27:12;;;;;;;3.43;2.47;;;16.50;99.90;;;;;;5114681;28;20245;-37
2022/09/13 03:29:49;;;;;;;2.70;2.30;;;16.50;99.90;;;;;;5114329;28;20238;-39
2022/09/13 03:32:45;;;;;;;3.30;2.27;;;16.50;99.90;;;;;;5114196;28;20261;-37
2022/09/13 03:35:29;;;;;;;3.43;1.83;;;16.50;99.90;;;;;;5113970;27;20206;-39
2022/09/13 03:38:12;;;;;;;2.10;1.90;;;16.50;99.90;;;;;;5114322;28;20165;-39
2022/09/13 03:40:37;;;;;;;5.50;2.40;;;16.50;99.90;;;;;;5114004;27;20197;-36
2022/09/13 03:43:29;;;;;;;2.37;2.00;;;16.50;99.90;;;;;;5114192;28;20638;-39
2022/09/13 03:45:58;;;;;;;2.30;2.10;;;16.40;99.90;;;;;;5113803;28;20182;-40
2022/09/13 03:48:24;;;;;;;2.83;2.60;;;16.50;99.90;;;;;;5113750;28;20240;-38
2022/09/13 03:50:50;;;;;;;2.90;2.13;;;16.50;99.90;;;;;;5113868;28;20184;-38
2022/09/13 03:53:25;;;;;;;3.30;2.20;;;16.50;99.90;;;;;;5112536;28;20656;-38
2022/09/13 03:55:52;;;;;;;3.57;2.50;;;16.50;99.90;;;;;;5113856;28;20200;-38
2022/09/13 03:58:19;;;;;;;3.60;2.30;;;16.50;99.90;;;;;;5113687;28;20178;-39
2022/09/13 04:00:44;;;;;;;2.50;2.30;;;16.50;99.90;;;;;;5113554;28;20210;-38
2022/09/13 04:03:11;;;;;;;2.67;2.47;;;16.50;99.90;;;;;;5113605;28;20219;-39
2022/09/13 04:05:38;;;;;;;2.93;2.37;;;16.50;99.90;;;;;;5113520;28;20201;-38
2022/09/13 04:08:05;;;;;;;4.30;2.60;;;16.50;99.90;;;;;;5113607;28;20185;-38
2022/09/13 04:10:32;;;;;;;3.23;2.70;;;16.50;99.90;;;;;;5113791;28;20170;-40
2022/09/13 04:13:01;;;;;;;3.20;2.60;;;16.50;99.90;;;;;;5113433;28;20174;-39
2022/09/13 04:15:30;;;;;;;3.43;2.33;;;16.50;99.90;;;;;;5114079;28;20201;-39
2022/09/13 04:17:55;;;;;;;2.70;2.50;;;16.50;99.90;;;;;;5113472;28;20170;-38
2022/09/13 04:20:21;;;;;;;3.30;2.20;;;16.50;99.90;;;;;;5113647;28;20201;-39
2022/09/13 04:22:51;;;;;;;3.00;2.70;;;16.50;99.90;;;;;;5117836;28;20604;-41
2022/09/13 04:25:16;;;;;;;3.63;2.60;;;16.50;99.90;;;;;;5118853;27;20214;-40
2022/09/13 04:27:42;;;;;;;4.17;2.80;;;16.50;99.90;;;;;;5120131;27;20170;-40
2022/09/13 04:30:08;;;;;;;5.13;2.60;;;16.50;99.90;;;;;;5119335;27;20182;-38
2022/09/13 04:32:34;;;;;;;4.13;2.70;;;16.50;99.90;;;;;;5120120;27;20181;-38
2022/09/13 04:35:00;;;;;;;5.00;2.63;;;16.50;99.90;;;;;;5120034;27;20613;-38
2022/09/13 04:37:26;;;;;;;3.60;2.47;;;16.50;99.90;;;;;;5120424;27;20244;-37
2022/09/13 04:39:52;;;;;;;4.37;2.47;;;16.50;99.90;;;;;;5118912;28;20250;-39
2022/09/13 04:42:18;;;;;;;3.67;2.33;;;16.50;99.90;;;;;;5119974;27;20227;-40
2022/09/13 04:44:44;;;;;;;6.00;2.37;;;16.40;99.90;;;;;;5118846;28;20197;-39
2022/09/13 04:47:10;;;;;;;7.23;2.40;;;16.50;99.90;;;;;;5120171;27;20201;-41
2022/09/13 04:49:35;;;;;;;6.50;2.83;;;16.50;99.90;;;;;;5120280;27;20206;-40
2022/09/13 04:52:01;;;;;;;5.93;2.50;;;16.50;99.90;;;;;;5120043;28;20671;-40
2022/09/13 04:54:26;;;;;;;10.03;2.97;;;16.50;99.90;;;;;;5119985;27;20544;-40
2022/09/13 04:56:53;;;;;;;7.60;2.77;;;16.40;99.90;;;;;;5120041;27;20185;-40
2022/09/13 04:59:19;;;;;;;4.40;2.80;;;16.50;99.90;;;;;;5119964;27;20177;-40
2022/09/13 05:01:44;;;;;;;5.60;2.70;;;16.50;99.90;;;;;;5120231;27;20603;-39
2022/09/13 05:04:10;;;;;;;5.07;2.70;;;16.50;99.90;;;;;;5120717;27;20515;-38
2022/09/13 05:06:36;;;;;;;2.63;2.37;;;16.50;99.90;;;;;;5120162;27;20190;-41
2022/09/13 05:09:02;;;;;;;2.63;2.40;;;16.50;99.90;;;;;;5118640;27;20182;-38
2022/09/13 05:11:28;;;;;;;5.13;2.67;;;16.50;99.90;;;;;;5120126;27;20170;-37
2022/09/13 05:13:58;;;;;;;7.10;2.43;;;16.50;99.90;;;;;;5119748;27;20175;-37
2022/09/13 05:16:27;;;;;;;5.07;2.37;;;16.50;99.90;;;;;;5119802;27;20604;-39
2022/09/13 05:18:53;;;;;;;5.00;2.30;;;16.50;99.90;;;;;;5119962;27;20190;-40
2022/09/13 05:21:19;;;;;;;3.13;2.17;;;16.50;99.90;;;;;;5118257;28;20296;-40
2022/09/13 05:23:47;;;;;;;5.47;2.50;;;16.50;99.90;;;;;;5119606;27;20266;-39
2022/09/13 05:26:13;;;;;;;5.43;2.87;;;16.50;99.90;;;;;;5119560;27;20563;-39
2022/09/13 05:28:38;;;;;;;4.17;2.73;;;16.50;99.90;;;;;;5119634;27;20185;-39
2022/09/13 05:31:16;;;;;;;2.60;2.40;;;16.40;99.90;;;;;;5119542;27;20576;-39
2022/09/13 05:33:42;;;;;;;4.87;2.50;;;16.50;99.90;;;;;;5116230;28;20312;-39
2022/09/13 05:36:08;;;;;;;3.90;2.67;;;16.50;99.90;;;;;;5116472;28;20236;-39
2022/09/13 05:38:33;;;;;;;3.90;2.43;;;16.50;99.90;;;;;;5114915;28;20521;-39
2022/09/13 05:41:04;;;;;;;4.90;2.57;;;16.50;99.90;;;;;;5116460;28;20205;-38
2022/09/13 05:43:32;;;;;;;5.50;2.70;;;16.50;99.90;;;;;;5116210;28;20628;-38
2022/09/13 05:46:02;;;;;;;3.30;2.43;;;16.50;99.90;;;;;;5116241;28;20284;-40
2022/09/13 05:48:28;;;;;;;5.13;2.40;;;16.60;99.90;;;;;;5116450;28;20258;-38
2022/09/13 05:50:54;;;;;;;4.63;2.63;;;16.60;99.90;;;;;;5116228;27;20257;-39
2022/09/13 05:53:19;;;;;;;4.00;2.90;;;16.60;99.90;;;;;;5116142;28;20202;-37
2022/09/13 05:55:45;;;;;;;5.13;2.40;;;16.60;99.90;;;;;;5116231;28;20564;-38
2022/09/13 05:58:11;;;;;;;4.90;2.33;;;16.60;99.90;;;;;;5116699;27;20220;-40
2022/09/13 06:00:36;;;;;;;5.70;2.90;;;16.60;99.90;;;;;;5116244;28;20202;-40
2022/09/13 06:03:02;;;;;;;5.63;2.80;;;16.70;99.90;;;;;;5115809;28;20655;-40
2022/09/13 06:05:28;;;;;;;4.40;2.50;;;16.70;99.90;;;;;;5114616;28;20285;-39
2022/09/13 06:07:53;;;;;;;5.20;2.60;;;16.70;99.90;;;;;;5115836;28;20206;-39
2022/09/13 06:10:19;;;;;;;4.07;2.40;;;16.70;99.90;;;;;;5115985;28;20182;-39
2022/09/13 06:12:46;;;;;;;4.00;2.17;;;16.80;99.90;;;;;;5115623;28;20178;-38
2022/09/13 06:15:12;;;;;;;3.93;2.50;;;16.80;99.90;;;;;;5115541;28;20198;-39
2022/09/13 06:17:38;;;;;;;3.53;2.57;;;16.80;99.90;;;;;;5115585;28;20182;-41
2022/09/13 06:20:04;;;;;;;5.13;2.23;;;16.90;99.90;;;;;;5115674;28;20210;-38
2022/09/13 06:22:32;;;;;;;5.30;2.60;;;16.90;99.90;;;;;;5115713;28;20189;-36
2022/09/13 06:24:58;;;;;;;3.30;2.63;;;17.00;99.90;;;;;;5115520;28;20263;-40
2022/09/13 06:27:24;;;;;;;5.00;2.63;;;17.00;99.90;;;;;;5115393;28;20631;-39
2022/09/13 06:29:49;;;;;;;3.03;2.43;;;17.10;99.90;;;;;;5115513;28;20274;-38
2022/09/13 06:32:15;;;;;;;4.23;2.30;;;17.10;99.90;;;;;;5115355;28;20188;-37
2022/09/13 06:34:41;;;;;;;3.77;2.50;;;17.10;99.90;;;;;;5115461;28;20281;-41
2022/09/13 06:37:06;;;;;;;4.57;2.40;;;17.20;99.90;;;;;;5115413;28;20185;-37
2022/09/13 06:39:33;;;;;;;4.53;2.33;;;17.20;99.90;;;;;;5115391;28;20178;-40
2022/09/13 06:41:59;;;;;;;7.80;2.43;;;17.30;99.90;;;;;;5115165;28;20197;-38
2022/09/13 06:44:24;;;;;;;3.27;2.30;;;17.30;99.90;;;;;;5114985;28;20197;-39
2022/09/13 06:46:50;;;;;;;4.43;2.40;;;17.40;99.90;;;;;;5114663;28;20174;-37
2022/09/13 06:49:15;;;;;;;5.03;2.57;;;17.50;99.90;;;;;;5115236;28;20182;-38
2022/09/13 06:51:41;;;;;;;7.20;2.50;;;17.50;99.90;;;;;;5115217;28;20201;-40
2022/09/13 06:54:06;;;;;;;4.40;2.50;;;17.60;99.90;;;;;;5114868;28;20530;-39
2022/09/13 06:56:34;;;;;;;5.63;2.80;;;17.60;99.90;;;;;;5114935;28;20213;-38
2022/09/13 06:59:03;;;;;;;5.13;2.40;;;17.70;99.90;;;;;;5114657;28;20174;-40
2022/09/13 07:01:42;;;;;;;2.93;2.30;;;17.80;99.90;;;;;;5114775;28;20198;-40
2022/09/13 07:04:13;;;;;;;3.70;2.30;;;17.90;99.90;;;;;;5114962;28;20658;-40
2022/09/13 07:06:41;;;;;;;4.70;2.30;;;18.00;99.90;;;;;;5114543;28;20731;-38
2022/09/13 07:09:12;;;;;;;2.47;2.10;;;18.10;99.90;;;;;;5114600;28;20255;-41
2022/09/13 07:11:40;;;;;;;4.83;2.40;;;18.20;99.90;;;;;;5113717;28;20189;-41
2022/09/13 07:14:06;;;;;;;5.23;2.60;;;18.20;99.90;;;;;;5114526;28;20174;-40
2022/09/13 07:16:35;;;;;;;3.67;2.50;;;18.30;99.90;;;;;;5114452;28;20197;-38
2022/09/13 07:19:04;;;;;;;7.17;2.27;;;18.50;99.90;;;;;;5114772;28;20189;-40
2022/09/13 07:21:31;;;;;;;3.33;2.10;;;18.60;99.90;;;;;;5114223;28;20202;-40
2022/09/13 07:23:57;;;;;;;5.93;2.23;;;18.60;99.90;;;;;;5114439;28;20182;-40
2022/09/13 07:26:26;;;;;;;5.47;2.20;;;18.70;99.90;;;;;;5114338;28;20190;-41
2022/09/13 07:28:54;;;;;;;7.37;2.40;;;18.80;99.90;;;;;;5114241;28;20178;-41
2022/09/13 07:31:25;;;;;;;5.83;2.00;;;18.90;99.90;;;;;;5114160;28;20182;-39
2022/09/13 07:33:56;;;;;;;3.40;2.13;;;19.00;99.90;;;;;;5114399;28;20186;-39
2022/09/13 07:36:23;;;;;;;4.80;1.93;;;19.10;99.90;;;;;;5114003;28;20695;-40
2022/09/13 07:38:49;;;;;;;3.80;2.07;;;19.20;99.90;;;;;;5112783;28;20178;-40
2022/09/13 07:41:20;;;;;;;4.47;2.00;;;19.30;99.90;;;;;;5114240;28;20206;-42
2022/09/13 07:43:46;;;;;;;2.07;1.80;;;19.30;99.90;;;;;;5114187;28;20183;-41
2022/09/13 07:46:17;;;;;;;2.00;1.80;;;19.40;99.90;;;;;;5114223;28;20202;-41
2022/09/13 07:48:45;;;;;;;6.10;1.80;;;19.50;99.90;;;;;;5113993;28;20194;-40
2022/09/13 07:51:16;;;;;;;4.63;1.70;;;19.50;99.90;;;;;;5114151;28;20246;-38
2022/09/13 07:53:44;;;;;;;3.67;1.83;;;19.60;99.90;;;;;;5114009;28;20186;-40
2022/09/13 07:56:11;;;;;;;3.37;1.70;;;19.70;99.90;;;;;;5113545;28;20204;-38
2022/09/13 07:58:38;;;;;;;1.77;1.50;;;19.80;99.90;;;;;;5113746;28;20545;-39
2022/09/13 08:01:06;;;;;;;7.37;1.70;;;19.90;99.90;;;;;;5114001;28;20209;-39
2022/09/13 08:03:34;;;;;;;6.63;1.90;;;19.90;99.90;;;;;;5113730;28;20193;-37
2022/09/13 08:06:00;;;;;;;5.97;1.90;;;20.00;99.90;;;;;;5113573;28;20198;-41
2022/09/13 08:08:26;;;;;;;4.53;1.77;;;20.10;99.90;;;;;;5113634;28;20182;-41
2022/09/13 08:10:52;;;;;;;2.63;1.40;;;20.20;99.90;;;;;;5113559;28;20182;-39
2022/09/13 08:13:17;;;;;;;2.13;1.70;;;20.30;99.90;;;;;;5113472;28;20640;-41
2022/09/13 08:15:43;;;;;;;1.90;1.70;;;20.30;99.90;;;;;;5113524;28;20212;-39
2022/09/13 08:18:09;;;;;;;3.90;1.93;;;20.40;99.90;;;;;;5113671;28;20181;-42
2022/09/13 08:20:37;;;;;;;2.80;1.73;;;20.50;99.90;;;;;;5113489;28;20246;-40
2022/09/13 08:23:04;;;;;;;2.73;1.77;;;20.60;99.90;;;;;;5113525;28;20542;-38
2022/09/13 08:25:35;;;;;;;6.37;1.50;;;20.70;99.90;;;;;;5113520;28;20213;-39
2022/09/13 08:28:04;;;;;;;6.77;2.17;;;20.80;99.90;;;;;;5113683;28;20553;-41
2022/09/13 08:30:32;;;;;;;3.37;1.70;;;20.90;99.90;;;;;;5113653;28;20193;-39
2022/09/13 08:33:00;;;;;;;3.90;2.00;;;21.00;99.90;;;;;;5113915;28;20178;-39
2022/09/13 08:35:25;;;;;;;4.80;1.80;;;21.10;99.90;;;;;;5113544;28;20659;-40
2022/09/13 08:37:51;;;;;;;2.43;1.37;;;21.20;99.90;;;;;;5113564;28;20174;-38
2022/09/13 08:40:16;;;;;;;4.40;1.60;;;21.30;99.90;;;;;;5113717;28;20208;-40
2022/09/13 08:42:50;;;;;;;2.47;1.87;;;21.40;99.90;;;;;;5113622;28;20178;-41
2022/09/13 08:45:16;;;;;;;3.73;1.60;;;21.50;99.90;;;;;;5113164;28;20194;-39
2022/09/13 08:47:55;;;;;;;3.03;2.00;;;21.70;99.90;;;;;;5113473;28;20181;-41
2022/09/13 08:50:27;;;;;;;4.53;1.90;;;21.80;99.90;;;;;;5113461;28;20162;-40
2022/09/13 08:53:08;;;;;;;3.40;1.67;;;21.80;99.90;;;;;;5113761;28;20171;-40
2022/09/13 08:56:12;;;;;;;3.90;1.90;;;21.90;99.90;;;;;;5113576;28;20198;-41
2022/09/13 08:58:37;;;;;;;3.60;2.20;;;21.80;99.90;;;;;;5113296;28;20196;-42
2022/09/13 09:01:30;;;;;;;3.60;1.57;;;21.90;99.90;;;;;;5113408;28;20210;-41
2022/09/13 09:04:04;;;;;;;3.43;1.50;;;21.90;99.90;;;;;;5113089;28;20608;-42
2022/09/13 09:06:32;;;;;;;4.23;2.13;;;21.80;99.90;;;;;;5113027;28;20199;-40
2022/09/13 09:09:04;;;;;;;3.57;2.03;;;21.90;99.90;;;;;;5114342;28;20265;-42
2022/09/13 09:11:39;;;;;;;4.53;2.57;;;21.90;99.90;;;;;;5116946;28;20239;-41
2022/09/13 09:14:18;;;;;;;3.40;2.37;;;22.10;99.90;;;;;;5117093;28;20166;-39
2022/09/13 09:16:50;;;;;;;3.67;2.27;;;22.20;99.90;;;;;;5117225;28;20205;-39
2022/09/13 09:19:23;;;;;;;5.00;2.17;;;22.20;99.90;;;;;;5117218;28;20170;-40
2022/09/13 09:21:50;;;;;;;4.43;2.30;;;22.30;99.90;;;;;;5117091;28;20223;-40
2022/09/13 09:24:23;;;;;;;4.20;2.80;;;22.40;99.90;;;;;;5117098;28;20206;-40
2022/09/13 09:26:49;;;;;;;5.10;2.57;;;22.50;99.90;;;;;;5116895;28;20201;-42
2022/09/13 09:29:19;;;;;;;4.47;2.27;;;22.60;99.90;;;;;;5117173;28;20177;-40
2022/09/13 09:32:11;;;;;;;3.77;2.47;;;22.70;99.90;;;;;;5116762;28;20159;-39
2022/09/13 09:34:54;;;;;;;4.93;2.37;;;22.80;99.90;;;;;;5116485;28;20562;-41
2022/09/13 09:37:24;;;;;;;5.67;2.50;;;22.90;99.90;;;;;;5116624;28;20178;-41
2022/09/13 09:39:52;;;;;;;5.10;2.50;;;23.00;99.90;;;;;;5116780;28;20194;-39
2022/09/13 09:42:25;;;;;;;4.87;2.50;;;23.10;99.90;;;;;;5116398;28;20235;-41
2022/09/13 09:45:12;;;;;;;4.27;3.20;;;23.20;99.90;;;;;;5116513;28;20275;-40
2022/09/13 09:47:45;;;;;;;4.03;2.30;;;23.30;99.90;;;;;;5115905;28;20624;-38
2022/09/13 09:50:16;;;;;;;6.03;2.70;;;23.30;99.90;;;;;;5116413;28;20193;-38
2022/09/13 09:53:00;;;;;;;14.53;3.07;;;23.40;99.90;;;;;;5116474;28;20163;-40
2022/09/13 09:55:33;;;;;;;3.33;2.70;;;23.60;99.90;;;;;;5116170;28;20569;-39
2022/09/13 09:58:05;;;;;;;6.10;2.93;;;23.60;99.90;;;;;;5116605;28;20207;-40
2022/09/13 10:00:38;;;;;;;4.00;2.83;;;23.60;99.90;;;;;;5115942;28;20202;-43
2022/09/13 10:03:08;;;;;;;5.83;2.97;;;23.70;99.90;;;;;;5116310;27;20163;-41
2022/09/13 10:05:34;;;;;;;4.20;3.00;;;23.70;99.90;;;;;;5115846;28;20194;-42
2022/09/13 10:08:04;;;;;;;4.40;2.77;;;23.80;99.90;;;;;;5116131;28;20247;-42
2022/09/13 10:10:37;;;;;;;5.17;2.93;;;23.90;99.90;;;;;;5115875;28;20181;-44
2022/09/13 10:13:05;;;;;;;9.37;3.50;;;23.90;99.90;;;;;;5116319;28;20198;-40
2022/09/13 10:15:33;;;;;;;4.93;3.60;;;24.00;99.90;;;;;;5115842;28;20213;-43
2022/09/13 10:18:16;;;;;;;4.07;3.60;;;24.00;99.90;;;;;;5115691;28;20170;-42
2022/09/13 10:21:16;;;;;;;4.73;3.50;;;24.00;99.90;;;;;;5115211;28;20801;-41
2022/09/13 10:23:41;;;;;;;6.77;4.37;;;24.00;99.90;;;;;;5115936;28;20159;-43
2022/09/13 10:26:16;;;;;;;7.57;3.60;;;24.00;99.90;;;;;;5115358;28;20229;-41
2022/09/13 10:28:48;;;;;;;4.43;3.60;;;24.00;99.90;;;;;;5115417;28;20658;-42
2022/09/13 10:31:16;;;;;;;6.43;3.37;;;24.10;99.90;;;;;;5115719;28;20186;-41
2022/09/13 10:33:50;;;;;;;6.60;3.47;;;24.10;99.90;;;;;;5115325;28;20181;-43
2022/09/13 10:36:34;;;;;;;6.37;3.57;;;24.20;99.90;;;;;;5114019;28;20618;-41
2022/09/13 10:39:01;;;;;;;4.40;3.17;;;24.20;99.90;;;;;;5115454;28;20540;-41
2022/09/13 10:41:30;;;;;;;4.43;3.00;;;24.40;99.90;;;;;;5115600;28;20202;-42
2022/09/13 10:43:57;;;;;;;5.00;3.17;;;24.40;99.90;;;;;;5115048;28;20170;-43
2022/09/13 10:46:23;;;;;;;3.50;3.00;;;24.50;99.90;;;;;;5114967;28;20224;-43
2022/09/13 10:48:55;;;;;;;3.93;3.27;;;24.60;99.90;;;;;;5115124;27;20174;-43
2022/09/13 10:51:26;;;;;;;6.13;3.63;;;24.70;99.90;;;;;;5115173;28;20158;-40
2022/09/13 10:54:28;;;;;;;4.70;3.30;;;24.80;99.90;;;;;;5114978;28;20178;-43
2022/09/13 10:56:53;;;;;;;5.00;2.87;;;24.90;99.90;;;;;;5092702;28;20530;-43
2022/09/13 10:59:21;;;;;;;4.90;3.00;;;25.00;99.90;;;;;;5110809;28;20194;-42
2022/09/13 11:01:52;;;;;;;3.90;3.03;;;25.10;99.90;;;;;;5114694;28;20573;-42
2022/09/13 11:04:32;;;;;;;7.43;3.97;;;25.30;99.90;;;;;;5115104;28;20177;-41
2022/09/13 11:07:06;;;;;;;6.10;2.57;;;25.40;99.90;;;;;;5114948;28;20166;-42
2022/09/13 11:09:39;;;;;;;4.10;2.70;;;25.40;99.90;;;;;;5114641;28;20670;-41
2022/09/13 11:12:09;;;;;;;6.97;3.20;;;25.50;99.90;;;;;;5114473;27;20193;-40
2022/09/13 11:14:34;;;;;;;3.90;2.87;;;25.50;99.90;;;;;;5114586;27;20253;-42
2022/09/13 11:17:24;;;;;;;5.80;2.67;;;25.60;99.90;;;;;;5114774;28;20249;-42
2022/09/13 11:20:16;;;;;;;3.97;2.83;;;25.60;99.90;;;;;;5114506;28;20275;-41
2022/09/13 11:23:04;;;;;;;3.27;2.40;;;25.50;99.90;;;;;;5115108;28;20521;-41
2022/09/13 11:26:07;;;;;;;3.00;2.60;;;25.40;99.90;;;;;;5114217;28;20205;-42
2022/09/13 11:29:05;;;;;;;6.37;3.60;;;25.50;99.90;;;;;;5102231;28;20201;-41
2022/09/13 11:31:40;;;;;;;3.60;3.30;;;25.60;99.90;;;;;;5113509;28;20180;-41
2022/09/13 11:34:17;;;;;;;6.33;2.93;;;25.50;99.90;;;;;;5114181;28;20172;-41
2022/09/13 11:36:53;;;;;;;4.77;3.10;;;25.70;99.90;;;;;;5114579;28;20236;-44
2022/09/13 11:39:42;;;;;;;5.23;2.60;;;25.80;99.90;;;;;;5114374;28;20174;-45
2022/09/13 11:42:10;;;;;;;5.77;2.00;;;25.90;99.90;;;;;;5114337;28;20169;-44
2022/09/13 11:44:42;;;;;;;3.00;2.23;;;26.00;99.90;;;;;;5112625;28;20177;-44
2022/09/13 11:47:16;;;;;;;3.27;2.30;;;26.00;99.90;;;;;;5112704;28;20219;-44
2022/09/13 11:49:51;;;;;;;2.93;2.00;;;26.00;99.90;;;;;;5114071;28;20172;-44
2022/09/13 11:52:35;;;;;;;2.00;1.80;;;26.00;99.90;;;;;;5114523;28;20484;-43
2022/09/13 11:55:22;;;;;;;4.83;1.73;;;26.20;99.90;;;;;;5112973;28;20198;-46
2022/09/13 11:57:52;;;;;;;1.77;1.50;;;26.60;99.90;;;;;;5114223;28;20628;-43
2022/09/13 12:00:24;;;;;;;4.63;1.90;;;26.90;99.90;;;;;;5113384;28;20194;-44
2022/09/13 12:02:50;;;;;;;1.87;1.70;;;27.20;99.90;;;;;;5114251;28;20644;-43
2022/09/13 12:05:21;;;;;;;2.70;1.67;;;27.40;99.90;;;;;;5113926;28;20186;-45
2022/09/13 12:08:11;;;;;;;2.77;1.47;;;27.60;99.90;;;;;;5114328;28;20537;-44
2022/09/13 12:10:49;;;;;;;2.47;1.70;;;27.60;99.90;;;;;;5113801;27;20646;-44
2022/09/13 12:13:24;;;;;;;7.13;2.00;;;27.70;99.90;;;;;;5113912;28;20181;-44
2022/09/13 12:16:00;;;;;;;3.13;2.30;;;27.70;99.90;;;;;;5113841;28;20186;-43
2022/09/13 12:18:35;;;;;;;3.47;2.00;;;27.60;99.90;;;;;;5114203;28;20166;-44
2022/09/13 12:21:11;;;;;;;2.95;2.08;;;27.80;99.90;;;;;;5112189;28;20230;-45
2022/09/13 12:24:10;;;;;;;4.13;2.23;;;28.00;99.90;;;;;;5112564;28;20713;-43
2022/09/13 12:27:01;;;;;;;3.03;1.92;;;28.10;99.90;;;;;;5113534;28;20206;-45
2022/09/13 12:30:14;;;;;;;3.38;1.70;;;28.20;99.90;;;;;;5112388;28;20173;-45
2022/09/13 12:32:43;;;;;;;3.00;1.60;;;28.20;99.90;;;;;;5109092;28;20193;-45
2022/09/13 12:35:31;;;;;;;3.42;1.83;;;28.20;99.90;;;;;;5113567;28;20569;-45
2022/09/13 12:38:33;;;;;;;2.70;1.73;;;28.20;99.90;;;;;;5114016;28;20165;-44
2022/09/13 12:41:16;;;;;;;3.53;2.28;;;28.30;99.90;;;;;;5113720;28;20201;-44
2022/09/13 12:44:03;;;;;;;5.25;2.78;;;28.40;99.90;;;;;;5116224;28;20227;-43
2022/09/13 12:46:44;;;;;;;3.00;1.92;;;28.50;99.90;;;;;;5116529;28;20655;-45
2022/09/13 12:49:41;;;;;;;3.35;1.70;;;28.50;99.90;;;;;;5118018;28;20162;-44
2022/09/13 12:52:26;;;;;;;2.47;1.60;;;28.60;99.90;;;;;;5113142;28;20186;-43
2022/09/13 12:55:18;;;;;;;2.10;1.50;;;28.70;99.90;;;;;;5116386;28;20235;-45
2022/09/13 12:58:28;;;;;;;3.40;1.65;;;28.60;99.90;;;;;;5117964;28;20161;-44
2022/09/13 13:01:06;;;;;;;3.85;1.70;;;28.60;99.90;;;;;;5114747;28;20259;-45
2022/09/13 13:03:42;;;;;;;4.05;1.35;;;28.50;99.90;;;;;;5117843;28;20533;-44
2022/09/13 13:06:23;;;;;;;3.85;1.40;;;28.50;99.90;;;;;;5119357;28;20197;-45
2022/09/13 13:08:51;;;;;;;2.53;1.63;;;28.50;99.90;;;;;;5121592;28;20162;-45
2022/09/13 13:11:22;;;;;;;2.40;1.52;;;28.40;99.90;;;;;;5121683;28;20178;-41
2022/09/13 13:14:08;;;;;;;4.85;1.70;;;28.30;99.90;;;;;;5122721;28;20165;-42
2022/09/13 13:16:39;;;;;;;2.58;1.20;;;28.20;99.90;;;;;;5117879;28;20604;-42